sensor_id;sensor_type;location;lat;lon;timestamp;P1;durP1;ratioP1;P2;durP2;ratioP2
34296;SDS011;20564;42.902;25.336;2023-08-08T00:01:45;1.52;;;0.55;;
34296;SDS011;20564;42.902;25.336;2023-08-08T00:04:12;0.95;;;0.50;;
34296;SDS011;20564;42.902;25.336;2023-08-08T00:06:39;1.02;;;0.50;;
34296;SDS011;20564;42.902;25.336;2023-08-08T00:09:06;1.27;;;0.40;;
34296;SDS011;20564;42.902;25.336;2023-08-08T00:11:33;0.52;;;0.40;;
34296;SDS011;20564;42.902;25.336;2023-08-08T00:14:00;0.45;;;0.30;;
34296;SDS011;20564;42.902;25.336;2023-08-08T00:16:28;0.45;;;0.30;;
34296;SDS011;20564;42.902;25.336;2023-08-08T00:18:55;0.77;;;0.38;;
34296;SDS011;20564;42.902;25.336;2023-08-08T00:21:22;1.57;;;0.50;;
34296;SDS011;20564;42.902;25.336;2023-08-08T00:23:49;0.77;;;0.50;;
34296;SDS011;20564;42.902;25.336;2023-08-08T00:26:16;2.67;;;0.50;;
34296;SDS011;20564;42.902;25.336;2023-08-08T00:28:43;2.15;;;0.60;;
34296;SDS011;20564;42.902;25.336;2023-08-08T00:31:10;0.90;;;0.43;;
34296;SDS011;20564;42.902;25.336;2023-08-08T00:33:38;0.77;;;0.40;;
34296;SDS011;20564;42.902;25.336;2023-08-08T00:36:05;0.93;;;0.50;;
34296;SDS011;20564;42.902;25.336;2023-08-08T00:38:32;1.67;;;0.40;;
34296;SDS011;20564;42.902;25.336;2023-08-08T00:40:59;1.35;;;0.57;;
34296;SDS011;20564;42.902;25.336;2023-08-08T00:43:26;2.58;;;0.82;;
34296;SDS011;20564;42.902;25.336;2023-08-08T00:45:54;0.60;;;0.43;;
34296;SDS011;20564;42.902;25.336;2023-08-08T00:48:24;2.67;;;0.63;;
34296;SDS011;20564;42.902;25.336;2023-08-08T00:53:19;1.13;;;0.50;;
34296;SDS011;20564;42.902;25.336;2023-08-08T00:55:46;2.22;;;0.75;;
34296;SDS011;20564;42.902;25.336;2023-08-08T00:58:16;0.85;;;0.47;;
34296;SDS011;20564;42.902;25.336;2023-08-08T01:00:44;1.27;;;0.70;;
34296;SDS011;20564;42.902;25.336;2023-08-08T01:03:11;2.08;;;0.68;;
34296;SDS011;20564;42.902;25.336;2023-08-08T01:05:41;0.85;;;0.57;;
34296;SDS011;20564;42.902;25.336;2023-08-08T01:08:12;1.27;;;0.50;;
34296;SDS011;20564;42.902;25.336;2023-08-08T01:10:45;3.42;;;0.85;;
34296;SDS011;20564;42.902;25.336;2023-08-08T01:13:16;1.65;;;0.60;;
34296;SDS011;20564;42.902;25.336;2023-08-08T01:15:46;2.45;;;0.70;;
34296;SDS011;20564;42.902;25.336;2023-08-08T01:18:15;3.13;;;0.75;;
34296;SDS011;20564;42.902;25.336;2023-08-08T01:20:46;1.90;;;0.80;;
34296;SDS011;20564;42.902;25.336;2023-08-08T01:23:33;2.65;;;0.60;;
34296;SDS011;20564;42.902;25.336;2023-08-08T01:26:07;1.42;;;0.70;;
34296;SDS011;20564;42.902;25.336;2023-08-08T01:28:35;3.92;;;1.00;;
34296;SDS011;20564;42.902;25.336;2023-08-08T01:31:03;3.60;;;0.80;;
34296;SDS011;20564;42.902;25.336;2023-08-08T01:33:34;1.95;;;0.70;;
34296;SDS011;20564;42.902;25.336;2023-08-08T01:36:04;2.90;;;0.95;;
34296;SDS011;20564;42.902;25.336;2023-08-08T01:38:38;1.45;;;0.68;;
34296;SDS011;20564;42.902;25.336;2023-08-08T01:41:12;1.83;;;0.80;;
34296;SDS011;20564;42.902;25.336;2023-08-08T01:43:41;2.72;;;0.85;;
34296;SDS011;20564;42.902;25.336;2023-08-08T01:46:08;3.25;;;0.93;;
34296;SDS011;20564;42.902;25.336;2023-08-08T01:51:03;2.38;;;0.75;;
34296;SDS011;20564;42.902;25.336;2023-08-08T01:53:30;4.90;;;1.02;;
34296;SDS011;20564;42.902;25.336;2023-08-08T01:55:58;2.00;;;0.70;;
34296;SDS011;20564;42.902;25.336;2023-08-08T01:58:25;2.45;;;0.90;;
34296;SDS011;20564;42.902;25.336;2023-08-08T02:00:53;3.22;;;0.90;;
34296;SDS011;20564;42.902;25.336;2023-08-08T02:03:20;4.93;;;1.13;;
34296;SDS011;20564;42.902;25.336;2023-08-08T02:05:47;2.83;;;1.00;;
34296;SDS011;20564;42.902;25.336;2023-08-08T02:08:17;3.03;;;0.98;;
34296;SDS011;20564;42.902;25.336;2023-08-08T02:13:11;3.30;;;1.05;;
34296;SDS011;20564;42.902;25.336;2023-08-08T02:15:39;3.15;;;1.15;;
34296;SDS011;20564;42.902;25.336;2023-08-08T02:18:06;4.80;;;1.50;;
34296;SDS011;20564;42.902;25.336;2023-08-08T02:20:34;5.60;;;1.60;;
34296;SDS011;20564;42.902;25.336;2023-08-08T02:23:01;3.78;;;1.02;;
34296;SDS011;20564;42.902;25.336;2023-08-08T02:25:38;2.90;;;1.10;;
34296;SDS011;20564;42.902;25.336;2023-08-08T02:28:05;2.50;;;1.13;;
34296;SDS011;20564;42.902;25.336;2023-08-08T02:30:32;3.30;;;1.25;;
34296;SDS011;20564;42.902;25.336;2023-08-08T02:33:02;3.75;;;0.88;;
34296;SDS011;20564;42.902;25.336;2023-08-08T02:35:30;2.92;;;0.75;;
34296;SDS011;20564;42.902;25.336;2023-08-08T02:37:57;3.83;;;1.27;;
34296;SDS011;20564;42.902;25.336;2023-08-08T02:40:24;2.88;;;0.85;;
34296;SDS011;20564;42.902;25.336;2023-08-08T02:42:53;2.20;;;0.70;;
34296;SDS011;20564;42.902;25.336;2023-08-08T02:45:20;2.70;;;1.00;;
34296;SDS011;20564;42.902;25.336;2023-08-08T02:47:47;3.25;;;0.90;;
34296;SDS011;20564;42.902;25.336;2023-08-08T02:50:15;2.63;;;1.00;;
34296;SDS011;20564;42.902;25.336;2023-08-08T02:52:42;2.83;;;0.95;;
34296;SDS011;20564;42.902;25.336;2023-08-08T02:55:09;2.22;;;0.90;;
34296;SDS011;20564;42.902;25.336;2023-08-08T02:57:36;2.10;;;0.80;;
34296;SDS011;20564;42.902;25.336;2023-08-08T03:00:04;2.60;;;1.02;;
34296;SDS011;20564;42.902;25.336;2023-08-08T03:02:34;2.13;;;0.80;;
34296;SDS011;20564;42.902;25.336;2023-08-08T03:05:01;3.45;;;1.05;;
34296;SDS011;20564;42.902;25.336;2023-08-08T03:07:29;3.63;;;0.88;;
34296;SDS011;20564;42.902;25.336;2023-08-08T03:09:56;3.42;;;0.80;;
34296;SDS011;20564;42.902;25.336;2023-08-08T03:12:23;1.93;;;0.93;;
34296;SDS011;20564;42.902;25.336;2023-08-08T03:14:50;1.07;;;0.57;;
34296;SDS011;20564;42.902;25.336;2023-08-08T03:17:16;1.52;;;0.70;;
34296;SDS011;20564;42.902;25.336;2023-08-08T03:19:43;1.20;;;0.70;;
34296;SDS011;20564;42.902;25.336;2023-08-08T03:22:10;2.97;;;1.10;;
34296;SDS011;20564;42.902;25.336;2023-08-08T03:24:38;1.98;;;0.63;;
34296;SDS011;20564;42.902;25.336;2023-08-08T03:27:05;2.00;;;0.88;;
34296;SDS011;20564;42.902;25.336;2023-08-08T03:29:32;1.83;;;0.80;;
34296;SDS011;20564;42.902;25.336;2023-08-08T03:31:58;2.07;;;0.90;;
34296;SDS011;20564;42.902;25.336;2023-08-08T03:34:26;3.30;;;1.02;;
34296;SDS011;20564;42.902;25.336;2023-08-08T03:36:53;2.08;;;0.75;;
34296;SDS011;20564;42.902;25.336;2023-08-08T03:39:20;3.37;;;1.10;;
34296;SDS011;20564;42.902;25.336;2023-08-08T03:41:47;2.30;;;0.88;;
34296;SDS011;20564;42.902;25.336;2023-08-08T03:44:15;2.40;;;0.90;;
34296;SDS011;20564;42.902;25.336;2023-08-08T03:46:42;1.98;;;0.52;;
34296;SDS011;20564;42.902;25.336;2023-08-08T03:49:12;1.90;;;0.68;;
34296;SDS011;20564;42.902;25.336;2023-08-08T03:51:39;1.73;;;0.73;;
34296;SDS011;20564;42.902;25.336;2023-08-08T03:54:06;1.45;;;0.60;;
34296;SDS011;20564;42.902;25.336;2023-08-08T03:56:33;2.50;;;0.70;;
34296;SDS011;20564;42.902;25.336;2023-08-08T03:59:00;0.93;;;0.45;;
34296;SDS011;20564;42.902;25.336;2023-08-08T04:01:30;1.63;;;0.85;;
34296;SDS011;20564;42.902;25.336;2023-08-08T04:03:57;2.05;;;0.70;;
34296;SDS011;20564;42.902;25.336;2023-08-08T04:06:24;1.13;;;0.67;;
34296;SDS011;20564;42.902;25.336;2023-08-08T04:08:51;1.38;;;0.82;;
34296;SDS011;20564;42.902;25.336;2023-08-08T04:11:18;1.58;;;0.65;;
34296;SDS011;20564;42.902;25.336;2023-08-08T04:13:45;1.55;;;0.85;;
34296;SDS011;20564;42.902;25.336;2023-08-08T04:16:12;3.83;;;1.05;;
34296;SDS011;20564;42.902;25.336;2023-08-08T04:18:41;3.20;;;1.20;;
34296;SDS011;20564;42.902;25.336;2023-08-08T04:21:08;14.82;;;2.00;;
34296;SDS011;20564;42.902;25.336;2023-08-08T04:26:03;5.47;;;1.08;;
34296;SDS011;20564;42.902;25.336;2023-08-08T04:28:30;4.43;;;0.93;;
34296;SDS011;20564;42.902;25.336;2023-08-08T04:30:58;4.10;;;1.13;;
34296;SDS011;20564;42.902;25.336;2023-08-08T04:33:25;1.63;;;0.70;;
34296;SDS011;20564;42.902;25.336;2023-08-08T04:35:52;1.17;;;0.63;;
34296;SDS011;20564;42.902;25.336;2023-08-08T04:38:19;1.95;;;0.68;;
34296;SDS011;20564;42.902;25.336;2023-08-08T04:40:46;1.10;;;0.55;;
34296;SDS011;20564;42.902;25.336;2023-08-08T04:43:13;2.47;;;0.80;;
34296;SDS011;20564;42.902;25.336;2023-08-08T04:45:46;2.05;;;0.50;;
34296;SDS011;20564;42.902;25.336;2023-08-08T04:48:14;3.30;;;1.00;;
34296;SDS011;20564;42.902;25.336;2023-08-08T04:50:41;1.90;;;0.75;;
34296;SDS011;20564;42.902;25.336;2023-08-08T04:53:08;6.53;;;1.77;;
34296;SDS011;20564;42.902;25.336;2023-08-08T04:55:35;2.85;;;1.10;;
34296;SDS011;20564;42.902;25.336;2023-08-08T04:58:02;1.65;;;0.70;;
34296;SDS011;20564;42.902;25.336;2023-08-08T05:00:29;2.58;;;0.82;;
34296;SDS011;20564;42.902;25.336;2023-08-08T05:02:56;3.97;;;1.35;;
34296;SDS011;20564;42.902;25.336;2023-08-08T05:05:24;4.07;;;1.10;;
34296;SDS011;20564;42.902;25.336;2023-08-08T05:07:51;2.78;;;0.80;;
34296;SDS011;20564;42.902;25.336;2023-08-08T05:10:18;5.22;;;1.23;;
34296;SDS011;20564;42.902;25.336;2023-08-08T05:12:46;3.53;;;1.30;;
34296;SDS011;20564;42.902;25.336;2023-08-08T05:15:13;2.97;;;1.20;;
34296;SDS011;20564;42.902;25.336;2023-08-08T05:17:40;2.83;;;0.90;;
34296;SDS011;20564;42.902;25.336;2023-08-08T05:20:09;5.45;;;1.45;;
34296;SDS011;20564;42.902;25.336;2023-08-08T05:22:37;5.85;;;1.85;;
34296;SDS011;20564;42.902;25.336;2023-08-08T05:25:04;3.63;;;0.98;;
34296;SDS011;20564;42.902;25.336;2023-08-08T05:29:59;2.65;;;0.90;;
34296;SDS011;20564;42.902;25.336;2023-08-08T05:32:26;4.22;;;1.30;;
34296;SDS011;20564;42.902;25.336;2023-08-08T05:34:53;2.67;;;1.00;;
34296;SDS011;20564;42.902;25.336;2023-08-08T05:37:19;3.58;;;0.88;;
34296;SDS011;20564;42.902;25.336;2023-08-08T05:39:47;2.35;;;1.10;;
34296;SDS011;20564;42.902;25.336;2023-08-08T05:42:14;2.53;;;1.05;;
34296;SDS011;20564;42.902;25.336;2023-08-08T05:44:41;3.58;;;1.60;;
34296;SDS011;20564;42.902;25.336;2023-08-08T05:47:08;2.72;;;0.88;;
34296;SDS011;20564;42.902;25.336;2023-08-08T05:49:35;3.22;;;1.33;;
34296;SDS011;20564;42.902;25.336;2023-08-08T05:52:02;4.43;;;1.27;;
34296;SDS011;20564;42.902;25.336;2023-08-08T05:54:29;5.03;;;1.38;;
34296;SDS011;20564;42.902;25.336;2023-08-08T05:57:00;5.30;;;1.52;;
34296;SDS011;20564;42.902;25.336;2023-08-08T05:59:28;4.15;;;1.40;;
34296;SDS011;20564;42.902;25.336;2023-08-08T06:01:56;2.60;;;1.10;;
34296;SDS011;20564;42.902;25.336;2023-08-08T06:04:22;3.65;;;1.15;;
34296;SDS011;20564;42.902;25.336;2023-08-08T06:06:50;3.55;;;1.00;;
34296;SDS011;20564;42.902;25.336;2023-08-08T06:09:17;3.93;;;1.23;;
34296;SDS011;20564;42.902;25.336;2023-08-08T06:11:44;5.15;;;1.10;;
34296;SDS011;20564;42.902;25.336;2023-08-08T06:14:10;3.63;;;1.20;;
34296;SDS011;20564;42.902;25.336;2023-08-08T06:16:37;4.27;;;1.17;;
34296;SDS011;20564;42.902;25.336;2023-08-08T06:19:07;3.08;;;1.00;;
34296;SDS011;20564;42.902;25.336;2023-08-08T06:21:35;4.90;;;1.70;;
34296;SDS011;20564;42.902;25.336;2023-08-08T06:24:02;4.10;;;1.35;;
34296;SDS011;20564;42.902;25.336;2023-08-08T06:26:29;2.97;;;1.02;;
34296;SDS011;20564;42.902;25.336;2023-08-08T06:28:56;3.50;;;1.05;;
34296;SDS011;20564;42.902;25.336;2023-08-08T06:31:23;2.67;;;1.20;;
34296;SDS011;20564;42.902;25.336;2023-08-08T06:33:50;3.15;;;1.23;;
34296;SDS011;20564;42.902;25.336;2023-08-08T06:36:17;5.53;;;1.17;;
34296;SDS011;20564;42.902;25.336;2023-08-08T06:38:44;2.47;;;1.10;;
34296;SDS011;20564;42.902;25.336;2023-08-08T06:41:11;3.72;;;1.30;;
34296;SDS011;20564;42.902;25.336;2023-08-08T06:43:38;3.03;;;1.30;;
34296;SDS011;20564;42.902;25.336;2023-08-08T06:46:06;2.85;;;1.20;;
34296;SDS011;20564;42.902;25.336;2023-08-08T06:48:33;4.70;;;1.45;;
34296;SDS011;20564;42.902;25.336;2023-08-08T06:51:00;2.88;;;1.27;;
34296;SDS011;20564;42.902;25.336;2023-08-08T06:53:27;2.43;;;1.10;;
34296;SDS011;20564;42.902;25.336;2023-08-08T06:55:53;4.05;;;1.30;;
34296;SDS011;20564;42.902;25.336;2023-08-08T06:58:21;2.38;;;1.02;;
34296;SDS011;20564;42.902;25.336;2023-08-08T07:00:47;2.72;;;1.20;;
34296;SDS011;20564;42.902;25.336;2023-08-08T07:03:14;3.10;;;1.10;;
34296;SDS011;20564;42.902;25.336;2023-08-08T07:05:41;2.97;;;1.17;;
34296;SDS011;20564;42.902;25.336;2023-08-08T07:08:08;3.17;;;1.10;;
34296;SDS011;20564;42.902;25.336;2023-08-08T07:10:35;2.38;;;1.08;;
34296;SDS011;20564;42.902;25.336;2023-08-08T07:13:02;3.25;;;1.20;;
34296;SDS011;20564;42.902;25.336;2023-08-08T07:15:30;3.45;;;1.40;;
34296;SDS011;20564;42.902;25.336;2023-08-08T07:17:57;3.40;;;1.17;;
34296;SDS011;20564;42.902;25.336;2023-08-08T07:20:24;2.53;;;1.10;;
34296;SDS011;20564;42.902;25.336;2023-08-08T07:22:52;3.30;;;1.15;;
34296;SDS011;20564;42.902;25.336;2023-08-08T07:25:19;2.67;;;1.20;;
34296;SDS011;20564;42.902;25.336;2023-08-08T07:27:46;2.33;;;0.80;;
34296;SDS011;20564;42.902;25.336;2023-08-08T07:30:13;2.05;;;1.10;;
34296;SDS011;20564;42.902;25.336;2023-08-08T07:32:40;3.20;;;1.20;;
34296;SDS011;20564;42.902;25.336;2023-08-08T07:35:07;1.87;;;0.93;;
34296;SDS011;20564;42.902;25.336;2023-08-08T07:40:02;3.70;;;1.13;;
34296;SDS011;20564;42.902;25.336;2023-08-08T07:42:30;5.40;;;1.88;;
34296;SDS011;20564;42.902;25.336;2023-08-08T07:44:57;2.17;;;1.05;;
34296;SDS011;20564;42.902;25.336;2023-08-08T07:47:24;2.08;;;1.02;;
34296;SDS011;20564;42.902;25.336;2023-08-08T07:49:51;3.08;;;1.40;;
34296;SDS011;20564;42.902;25.336;2023-08-08T07:52:18;2.97;;;1.10;;
34296;SDS011;20564;42.902;25.336;2023-08-08T07:54:45;2.35;;;0.95;;
34296;SDS011;20564;42.902;25.336;2023-08-08T07:57:12;2.67;;;1.10;;
34296;SDS011;20564;42.902;25.336;2023-08-08T07:59:40;2.83;;;0.90;;
34296;SDS011;20564;42.902;25.336;2023-08-08T08:02:06;3.77;;;1.20;;
34296;SDS011;20564;42.902;25.336;2023-08-08T08:04:34;4.07;;;1.02;;
34296;SDS011;20564;42.902;25.336;2023-08-08T08:07:01;3.70;;;0.73;;
34296;SDS011;20564;42.902;25.336;2023-08-08T08:09:29;7.10;;;1.67;;
34296;SDS011;20564;42.902;25.336;2023-08-08T08:11:56;4.07;;;1.00;;
34296;SDS011;20564;42.902;25.336;2023-08-08T08:14:26;1.60;;;0.80;;
34296;SDS011;20564;42.902;25.336;2023-08-08T08:16:54;2.65;;;0.70;;
34296;SDS011;20564;42.902;25.336;2023-08-08T08:19:21;1.55;;;0.70;;
34296;SDS011;20564;42.902;25.336;2023-08-08T08:21:47;3.17;;;1.00;;
34296;SDS011;20564;42.902;25.336;2023-08-08T08:24:14;1.27;;;0.80;;
34296;SDS011;20564;42.902;25.336;2023-08-08T08:26:43;2.28;;;0.93;;
34296;SDS011;20564;42.902;25.336;2023-08-08T08:29:10;3.55;;;1.02;;
34296;SDS011;20564;42.902;25.336;2023-08-08T08:31:37;1.60;;;0.70;;
34296;SDS011;20564;42.902;25.336;2023-08-08T08:34:04;1.55;;;0.70;;
34296;SDS011;20564;42.902;25.336;2023-08-08T08:36:32;0.73;;;0.40;;
34296;SDS011;20564;42.902;25.336;2023-08-08T08:38:58;1.27;;;0.60;;
34296;SDS011;20564;42.902;25.336;2023-08-08T08:41:26;2.70;;;0.50;;
34296;SDS011;20564;42.902;25.336;2023-08-08T08:43:55;1.25;;;0.55;;
34296;SDS011;20564;42.902;25.336;2023-08-08T08:46:21;1.02;;;0.47;;
34296;SDS011;20564;42.902;25.336;2023-08-08T08:48:52;0.75;;;0.35;;
34296;SDS011;20564;42.902;25.336;2023-08-08T08:51:26;1.45;;;0.30;;
34296;SDS011;20564;42.902;25.336;2023-08-08T08:53:54;0.55;;;0.30;;
34296;SDS011;20564;42.902;25.336;2023-08-08T08:56:22;1.48;;;0.30;;
34296;SDS011;20564;42.902;25.336;2023-08-08T08:58:50;0.60;;;0.20;;
34296;SDS011;20564;42.902;25.336;2023-08-08T09:01:17;0.38;;;0.20;;
34296;SDS011;20564;42.902;25.336;2023-08-08T09:06:16;1.42;;;0.20;;
34296;SDS011;20564;42.902;25.336;2023-08-08T09:08:45;1.27;;;0.40;;
34296;SDS011;20564;42.902;25.336;2023-08-08T09:11:13;1.33;;;0.30;;
34296;SDS011;20564;42.902;25.336;2023-08-08T09:13:40;0.40;;;0.20;;
34296;SDS011;20564;42.902;25.336;2023-08-08T09:16:07;1.17;;;0.40;;
34296;SDS011;20564;42.902;25.336;2023-08-08T09:18:35;1.40;;;0.30;;
34296;SDS011;20564;42.902;25.336;2023-08-08T09:21:05;0.30;;;0.20;;
34296;SDS011;20564;42.902;25.336;2023-08-08T09:23:32;0.30;;;0.20;;
34296;SDS011;20564;42.902;25.336;2023-08-08T09:25:59;0.30;;;0.17;;
34296;SDS011;20564;42.902;25.336;2023-08-08T09:28:26;0.67;;;0.30;;
34296;SDS011;20564;42.902;25.336;2023-08-08T09:30:54;1.20;;;0.52;;
34296;SDS011;20564;42.902;25.336;2023-08-08T09:33:21;2.10;;;0.50;;
34296;SDS011;20564;42.902;25.336;2023-08-08T09:35:48;0.77;;;0.20;;
34296;SDS011;20564;42.902;25.336;2023-08-08T09:38:15;0.40;;;0.40;;
34296;SDS011;20564;42.902;25.336;2023-08-08T09:40:42;1.23;;;0.35;;
34296;SDS011;20564;42.902;25.336;2023-08-08T09:43:12;1.33;;;0.50;;
34296;SDS011;20564;42.902;25.336;2023-08-08T09:45:42;0.93;;;0.38;;
34296;SDS011;20564;42.902;25.336;2023-08-08T09:48:10;0.85;;;0.20;;
34296;SDS011;20564;42.902;25.336;2023-08-08T09:50:38;0.40;;;0.20;;
34296;SDS011;20564;42.902;25.336;2023-08-08T09:53:07;0.17;;;0.17;;
34296;SDS011;20564;42.902;25.336;2023-08-08T09:55:35;0.63;;;0.20;;
34296;SDS011;20564;42.902;25.336;2023-08-08T09:58:03;1.02;;;0.22;;
34296;SDS011;20564;42.902;25.336;2023-08-08T10:00:31;0.90;;;0.20;;
34296;SDS011;20564;42.902;25.336;2023-08-08T10:03:00;0.20;;;0.10;;
34296;SDS011;20564;42.902;25.336;2023-08-08T10:05:27;0.30;;;0.28;;
34296;SDS011;20564;42.902;25.336;2023-08-08T10:10:23;2.15;;;0.40;;
34296;SDS011;20564;42.902;25.336;2023-08-08T10:12:51;0.70;;;0.45;;
34296;SDS011;20564;42.902;25.336;2023-08-08T10:15:18;0.93;;;0.22;;
34296;SDS011;20564;42.902;25.336;2023-08-08T10:17:45;0.32;;;0.20;;
34296;SDS011;20564;42.902;25.336;2023-08-08T10:20:19;0.32;;;0.20;;
34296;SDS011;20564;42.902;25.336;2023-08-08T10:22:47;1.42;;;0.52;;
34296;SDS011;20564;42.902;25.336;2023-08-08T10:25:32;1.92;;;0.38;;
34296;SDS011;20564;42.902;25.336;2023-08-08T10:28:09;1.48;;;0.40;;
34296;SDS011;20564;42.902;25.336;2023-08-08T10:33:39;1.70;;;0.40;;
34296;SDS011;20564;42.902;25.336;2023-08-08T10:36:09;0.35;;;0.30;;
34296;SDS011;20564;42.902;25.336;2023-08-08T10:38:47;0.47;;;0.30;;
34296;SDS011;20564;42.902;25.336;2023-08-08T10:41:17;2.50;;;0.32;;
34296;SDS011;20564;42.902;25.336;2023-08-08T10:43:49;0.47;;;0.30;;
34296;SDS011;20564;42.902;25.336;2023-08-08T10:49:02;0.32;;;0.30;;
34296;SDS011;20564;42.902;25.336;2023-08-08T10:51:38;1.27;;;0.50;;
34296;SDS011;20564;42.902;25.336;2023-08-08T10:54:11;0.68;;;0.28;;
34296;SDS011;20564;42.902;25.336;2023-08-08T10:56:41;0.70;;;0.35;;
34296;SDS011;20564;42.902;25.336;2023-08-08T10:59:15;0.30;;;0.20;;
34296;SDS011;20564;42.902;25.336;2023-08-08T11:01:46;0.60;;;0.35;;
34296;SDS011;20564;42.902;25.336;2023-08-08T11:04:15;1.27;;;0.30;;
34296;SDS011;20564;42.902;25.336;2023-08-08T11:06:44;0.70;;;0.20;;
34296;SDS011;20564;42.902;25.336;2023-08-08T11:09:13;1.40;;;0.30;;
34296;SDS011;20564;42.902;25.336;2023-08-08T11:11:43;0.30;;;0.20;;
34296;SDS011;20564;42.902;25.336;2023-08-08T11:14:12;0.32;;;0.20;;
34296;SDS011;20564;42.902;25.336;2023-08-08T11:16:43;0.60;;;0.30;;
34296;SDS011;20564;42.902;25.336;2023-08-08T11:19:12;0.73;;;0.30;;
34296;SDS011;20564;42.902;25.336;2023-08-08T11:21:41;1.15;;;0.13;;
34296;SDS011;20564;42.902;25.336;2023-08-08T11:24:09;0.60;;;0.30;;
34296;SDS011;20564;42.902;25.336;2023-08-08T11:26:40;1.00;;;0.40;;
34296;SDS011;20564;42.902;25.336;2023-08-08T11:29:10;0.30;;;0.20;;
34296;SDS011;20564;42.902;25.336;2023-08-08T11:31:38;0.38;;;0.10;;
34296;SDS011;20564;42.902;25.336;2023-08-08T11:34:06;4.32;;;0.88;;
34296;SDS011;20564;42.902;25.336;2023-08-08T11:36:39;2.53;;;0.43;;
34296;SDS011;20564;42.902;25.336;2023-08-08T11:39:07;1.70;;;0.25;;
34296;SDS011;20564;42.902;25.336;2023-08-08T11:41:36;0.40;;;0.20;;
34296;SDS011;20564;42.902;25.336;2023-08-08T11:44:05;1.48;;;0.40;;
34296;SDS011;20564;42.902;25.336;2023-08-08T11:46:35;0.13;;;0.10;;
34296;SDS011;20564;42.902;25.336;2023-08-08T11:49:10;0.38;;;0.20;;
34296;SDS011;20564;42.902;25.336;2023-08-08T11:51:40;0.90;;;0.30;;
34296;SDS011;20564;42.902;25.336;2023-08-08T11:54:13;0.70;;;0.30;;
34296;SDS011;20564;42.902;25.336;2023-08-08T11:56:40;0.40;;;0.20;;
34296;SDS011;20564;42.902;25.336;2023-08-08T11:59:07;0.47;;;0.28;;
34296;SDS011;20564;42.902;25.336;2023-08-08T12:01:35;0.35;;;0.20;;
34296;SDS011;20564;42.902;25.336;2023-08-08T12:04:08;1.10;;;0.10;;
34296;SDS011;20564;42.902;25.336;2023-08-08T12:06:36;0.47;;;0.30;;
34296;SDS011;20564;42.902;25.336;2023-08-08T12:09:13;0.50;;;0.40;;
34296;SDS011;20564;42.902;25.336;2023-08-08T12:11:41;0.30;;;0.20;;
34296;SDS011;20564;42.902;25.336;2023-08-08T12:14:08;0.55;;;0.30;;
34296;SDS011;20564;42.902;25.336;2023-08-08T12:16:40;0.45;;;0.30;;
34296;SDS011;20564;42.902;25.336;2023-08-08T12:19:10;1.65;;;0.40;;
34296;SDS011;20564;42.902;25.336;2023-08-08T12:21:37;0.75;;;0.28;;
34296;SDS011;20564;42.902;25.336;2023-08-08T12:24:07;0.85;;;0.22;;
34296;SDS011;20564;42.902;25.336;2023-08-08T12:26:34;2.45;;;0.50;;
34296;SDS011;20564;42.902;25.336;2023-08-08T12:29:02;2.97;;;0.70;;
34296;SDS011;20564;42.902;25.336;2023-08-08T12:31:28;2.47;;;0.47;;
34296;SDS011;20564;42.902;25.336;2023-08-08T12:36:22;0.52;;;0.30;;
34296;SDS011;20564;42.902;25.336;2023-08-08T12:38:50;3.15;;;0.50;;
34296;SDS011;20564;42.902;25.336;2023-08-08T12:41:17;1.45;;;0.22;;
34296;SDS011;20564;42.902;25.336;2023-08-08T12:43:44;0.80;;;0.50;;
34296;SDS011;20564;42.902;25.336;2023-08-08T12:46:11;1.77;;;0.50;;
34296;SDS011;20564;42.902;25.336;2023-08-08T12:48:38;0.52;;;0.30;;
34296;SDS011;20564;42.902;25.336;2023-08-08T12:51:05;0.52;;;0.30;;
34296;SDS011;20564;42.902;25.336;2023-08-08T12:53:34;9.75;;;2.08;;
34296;SDS011;20564;42.902;25.336;2023-08-08T12:56:06;7.47;;;1.05;;
34296;SDS011;20564;42.902;25.336;2023-08-08T12:58:33;0.70;;;0.30;;
34296;SDS011;20564;42.902;25.336;2023-08-08T13:01:03;0.65;;;0.40;;
34296;SDS011;20564;42.902;25.336;2023-08-08T13:03:30;0.95;;;0.45;;
34296;SDS011;20564;42.902;25.336;2023-08-08T13:06:00;0.50;;;0.20;;
34296;SDS011;20564;42.902;25.336;2023-08-08T13:08:28;0.85;;;0.30;;
34296;SDS011;20564;42.902;25.336;2023-08-08T13:10:55;0.55;;;0.30;;
34296;SDS011;20564;42.902;25.336;2023-08-08T13:13:22;0.63;;;0.30;;
34296;SDS011;20564;42.902;25.336;2023-08-08T13:15:52;0.80;;;0.30;;
34296;SDS011;20564;42.902;25.336;2023-08-08T13:18:19;0.50;;;0.30;;
34296;SDS011;20564;42.902;25.336;2023-08-08T13:23:14;1.10;;;0.35;;
34296;SDS011;20564;42.902;25.336;2023-08-08T13:28:11;0.55;;;0.20;;
34296;SDS011;20564;42.902;25.336;2023-08-08T13:33:07;0.50;;;0.30;;
34296;SDS011;20564;42.902;25.336;2023-08-08T13:35:34;3.92;;;0.45;;
34296;SDS011;20564;42.902;25.336;2023-08-08T13:38:02;0.90;;;0.40;;
34296;SDS011;20564;42.902;25.336;2023-08-08T13:40:29;1.08;;;0.50;;
34296;SDS011;20564;42.902;25.336;2023-08-08T13:42:56;0.30;;;0.30;;
34296;SDS011;20564;42.902;25.336;2023-08-08T13:45:25;0.52;;;0.30;;
34296;SDS011;20564;42.902;25.336;2023-08-08T13:47:53;0.32;;;0.22;;
34296;SDS011;20564;42.902;25.336;2023-08-08T13:50:20;1.70;;;0.60;;
34296;SDS011;20564;42.902;25.336;2023-08-08T13:52:47;4.13;;;0.75;;
34296;SDS011;20564;42.902;25.336;2023-08-08T13:55:13;5.78;;;0.63;;
34296;SDS011;20564;42.902;25.336;2023-08-08T13:57:41;1.08;;;0.50;;
34296;SDS011;20564;42.902;25.336;2023-08-08T14:00:08;2.90;;;0.45;;
34296;SDS011;20564;42.902;25.336;2023-08-08T14:02:37;0.70;;;0.50;;
34296;SDS011;20564;42.902;25.336;2023-08-08T14:05:05;0.60;;;0.40;;
34296;SDS011;20564;42.902;25.336;2023-08-08T14:07:35;0.85;;;0.30;;
34296;SDS011;20564;42.902;25.336;2023-08-08T14:12:30;0.70;;;0.43;;
34296;SDS011;20564;42.902;25.336;2023-08-08T14:14:57;1.80;;;0.60;;
34296;SDS011;20564;42.902;25.336;2023-08-08T14:17:24;0.70;;;0.32;;
34296;SDS011;20564;42.902;25.336;2023-08-08T14:19:51;1.00;;;0.52;;
34296;SDS011;20564;42.902;25.336;2023-08-08T14:22:18;1.83;;;0.68;;
34296;SDS011;20564;42.902;25.336;2023-08-08T14:24:45;0.68;;;0.50;;
34296;SDS011;20564;42.902;25.336;2023-08-08T14:27:12;1.00;;;0.40;;
34296;SDS011;20564;42.902;25.336;2023-08-08T14:29:40;1.20;;;0.68;;
34296;SDS011;20564;42.902;25.336;2023-08-08T14:32:07;0.93;;;0.55;;
34296;SDS011;20564;42.902;25.336;2023-08-08T14:34:34;1.73;;;0.60;;
34296;SDS011;20564;42.902;25.336;2023-08-08T14:37:03;1.40;;;0.50;;
34296;SDS011;20564;42.902;25.336;2023-08-08T14:39:31;1.70;;;0.60;;
34296;SDS011;20564;42.902;25.336;2023-08-08T14:41:58;1.40;;;0.60;;
34296;SDS011;20564;42.902;25.336;2023-08-08T14:44:25;1.30;;;0.55;;
34296;SDS011;20564;42.902;25.336;2023-08-08T14:46:53;1.45;;;0.55;;
34296;SDS011;20564;42.902;25.336;2023-08-08T14:49:20;1.50;;;0.70;;
34296;SDS011;20564;42.902;25.336;2023-08-08T14:54:14;1.58;;;0.60;;
34296;SDS011;20564;42.902;25.336;2023-08-08T14:56:41;2.15;;;0.75;;
34296;SDS011;20564;42.902;25.336;2023-08-08T14:59:08;1.63;;;0.75;;
34296;SDS011;20564;42.902;25.336;2023-08-08T15:01:35;0.88;;;0.60;;
34296;SDS011;20564;42.902;25.336;2023-08-08T15:04:02;1.77;;;0.88;;
34296;SDS011;20564;42.902;25.336;2023-08-08T15:06:29;1.13;;;0.70;;
34296;SDS011;20564;42.902;25.336;2023-08-08T15:08:57;1.52;;;0.88;;
34296;SDS011;20564;42.902;25.336;2023-08-08T15:11:24;1.30;;;0.80;;
34296;SDS011;20564;42.902;25.336;2023-08-08T15:13:51;1.50;;;0.90;;
34296;SDS011;20564;42.902;25.336;2023-08-08T15:16:18;4.15;;;1.00;;
34296;SDS011;20564;42.902;25.336;2023-08-08T15:21:13;2.70;;;0.80;;